sensor_id;sensor_type;location;lat;lon;timestamp;temperature;humidity
20735;DHT22;10528;52.124;5.196;2023-07-02T00:00:05;18.50;99.90
20735;DHT22;10528;52.124;5.196;2023-07-02T00:02:37;18.40;99.90
20735;DHT22;10528;52.124;5.196;2023-07-02T00:05:05;18.20;99.90
20735;DHT22;10528;52.124;5.196;2023-07-02T00:07:34;18.20;99.90
20735;DHT22;10528;52.124;5.196;2023-07-02T00:10:03;18.10;99.90
20735;DHT22;10528;52.124;5.196;2023-07-02T00:12:31;18.10;99.90
20735;DHT22;10528;52.124;5.196;2023-07-02T00:14:58;18.10;99.90
20735;DHT22;10528;52.124;5.196;2023-07-02T00:17:25;18.20;99.90
20735;DHT22;10528;52.124;5.196;2023-07-02T00:19:52;18.20;99.90
20735;DHT22;10528;52.124;5.196;2023-07-02T00:22:20;18.00;99.90
20735;DHT22;10528;52.124;5.196;2023-07-02T00:24:47;18.00;99.90
20735;DHT22;10528;52.124;5.196;2023-07-02T00:27:14;18.00;99.90
20735;DHT22;10528;52.124;5.196;2023-07-02T00:29:41;17.90;99.90
20735;DHT22;10528;52.124;5.196;2023-07-02T00:32:08;17.80;99.90
20735;DHT22;10528;52.124;5.196;2023-07-02T00:34:35;17.80;99.90
20735;DHT22;10528;52.124;5.196;2023-07-02T00:37:02;17.80;99.90
20735;DHT22;10528;52.124;5.196;2023-07-02T00:39:29;17.80;99.90
20735;DHT22;10528;52.124;5.196;2023-07-02T00:42:03;17.60;99.90
20735;DHT22;10528;52.124;5.196;2023-07-02T00:44:31;17.60;99.90
20735;DHT22;10528;52.124;5.196;2023-07-02T00:46:58;17.70;99.90
20735;DHT22;10528;52.124;5.196;2023-07-02T00:49:25;17.60;99.90
20735;DHT22;10528;52.124;5.196;2023-07-02T00:51:53;17.70;99.90
20735;DHT22;10528;52.124;5.196;2023-07-02T00:54:20;17.70;99.90
20735;DHT22;10528;52.124;5.196;2023-07-02T00:56:47;17.60;99.90
20735;DHT22;10528;52.124;5.196;2023-07-02T00:59:14;17.80;99.90
20735;DHT22;10528;52.124;5.196;2023-07-02T01:01:41;17.60;99.90
20735;DHT22;10528;52.124;5.196;2023-07-02T01:04:09;17.40;99.90
20735;DHT22;10528;52.124;5.196;2023-07-02T01:06:37;17.30;99.90
20735;DHT22;10528;52.124;5.196;2023-07-02T01:09:08;17.20;99.90
20735;DHT22;10528;52.124;5.196;2023-07-02T01:11:45;17.10;99.90
20735;DHT22;10528;52.124;5.196;2023-07-02T01:14:28;17.10;99.90
20735;DHT22;10528;52.124;5.196;2023-07-02T01:16:59;17.10;99.90
20735;DHT22;10528;52.124;5.196;2023-07-02T01:19:53;17.10;99.90
20735;DHT22;10528;52.124;5.196;2023-07-02T01:22:27;17.00;99.90
20735;DHT22;10528;52.124;5.196;2023-07-02T01:24:55;16.90;99.90
20735;DHT22;10528;52.124;5.196;2023-07-02T01:27:22;16.80;99.90
20735;DHT22;10528;52.124;5.196;2023-07-02T01:29:53;16.70;99.90
20735;DHT22;10528;52.124;5.196;2023-07-02T01:32:20;16.70;99.90
20735;DHT22;10528;52.124;5.196;2023-07-02T01:34:50;16.60;99.90
20735;DHT22;10528;52.124;5.196;2023-07-02T01:37:19;16.60;99.90
20735;DHT22;10528;52.124;5.196;2023-07-02T01:39:47;16.60;99.90
20735;DHT22;10528;52.124;5.196;2023-07-02T01:42:18;16.50;99.90
20735;DHT22;10528;52.124;5.196;2023-07-02T01:44:47;16.50;99.90
20735;DHT22;10528;52.124;5.196;2023-07-02T01:47:16;16.40;99.90
20735;DHT22;10528;52.124;5.196;2023-07-02T01:49:43;16.50;99.90
20735;DHT22;10528;52.124;5.196;2023-07-02T01:52:10;16.50;99.90
20735;DHT22;10528;52.124;5.196;2023-07-02T01:54:37;16.70;99.90
20735;DHT22;10528;52.124;5.196;2023-07-02T01:57:05;16.80;99.90
20735;DHT22;10528;52.124;5.196;2023-07-02T01:59:32;16.70;99.90
20735;DHT22;10528;52.124;5.196;2023-07-02T02:01:59;16.60;99.90
20735;DHT22;10528;52.124;5.196;2023-07-02T02:04:26;16.60;99.90
20735;DHT22;10528;52.124;5.196;2023-07-02T02:06:57;16.40;99.90
20735;DHT22;10528;52.124;5.196;2023-07-02T02:09:24;16.30;99.90
20735;DHT22;10528;52.124;5.196;2023-07-02T02:11:51;16.30;99.90
20735;DHT22;10528;52.124;5.196;2023-07-02T02:14:19;16.30;99.90
20735;DHT22;10528;52.124;5.196;2023-07-02T02:16:46;16.30;99.90
20735;DHT22;10528;52.124;5.196;2023-07-02T02:19:14;16.30;99.90
20735;DHT22;10528;52.124;5.196;2023-07-02T02:21:42;16.20;99.90
20735;DHT22;10528;52.124;5.196;2023-07-02T02:24:10;16.20;99.90
20735;DHT22;10528;52.124;5.196;2023-07-02T02:26:37;16.20;99.90
20735;DHT22;10528;52.124;5.196;2023-07-02T02:29:04;16.10;99.90
20735;DHT22;10528;52.124;5.196;2023-07-02T02:31:31;16.10;99.90
20735;DHT22;10528;52.124;5.196;2023-07-02T02:33:59;16.00;99.90
20735;DHT22;10528;52.124;5.196;2023-07-02T02:36:26;15.90;99.90
20735;DHT22;10528;52.124;5.196;2023-07-02T02:38:54;15.90;99.90
20735;DHT22;10528;52.124;5.196;2023-07-02T02:41:22;15.90;99.90
20735;DHT22;10528;52.124;5.196;2023-07-02T02:43:51;15.80;99.90
20735;DHT22;10528;52.124;5.196;2023-07-02T02:46:23;15.80;99.90
20735;DHT22;10528;52.124;5.196;2023-07-02T02:48:52;15.70;99.90
20735;DHT22;10528;52.124;5.196;2023-07-02T02:51:19;15.70;99.90
20735;DHT22;10528;52.124;5.196;2023-07-02T02:53:46;15.60;99.90
20735;DHT22;10528;52.124;5.196;2023-07-02T02:56:14;15.60;99.90
20735;DHT22;10528;52.124;5.196;2023-07-02T02:58:41;15.60;99.90
20735;DHT22;10528;52.124;5.196;2023-07-02T03:01:08;15.50;99.90
20735;DHT22;10528;52.124;5.196;2023-07-02T03:03:39;15.60;99.90
20735;DHT22;10528;52.124;5.196;2023-07-02T03:06:15;15.70;99.90
20735;DHT22;10528;52.124;5.196;2023-07-02T03:08:42;15.60;99.90
20735;DHT22;10528;52.124;5.196;2023-07-02T03:11:09;15.80;99.90
20735;DHT22;10528;52.124;5.196;2023-07-02T03:13:36;15.80;99.90
20735;DHT22;10528;52.124;5.196;2023-07-02T03:16:04;15.80;99.90
20735;DHT22;10528;52.124;5.196;2023-07-02T03:18:31;15.90;99.90
20735;DHT22;10528;52.124;5.196;2023-07-02T03:20:59;15.90;99.90
20735;DHT22;10528;52.124;5.196;2023-07-02T03:23:26;15.90;99.90
20735;DHT22;10528;52.124;5.196;2023-07-02T03:25:53;15.90;99.90
20735;DHT22;10528;52.124;5.196;2023-07-02T03:28:20;16.00;99.90
20735;DHT22;10528;52.124;5.196;2023-07-02T03:30:47;15.90;99.90
20735;DHT22;10528;52.124;5.196;2023-07-02T03:33:14;15.80;99.90
20735;DHT22;10528;52.124;5.196;2023-07-02T03:35:41;15.90;99.90
20735;DHT22;10528;52.124;5.196;2023-07-02T03:38:08;16.00;99.90
20735;DHT22;10528;52.124;5.196;2023-07-02T03:40:35;15.90;99.90
20735;DHT22;10528;52.124;5.196;2023-07-02T03:43:02;16.00;99.90
20735;DHT22;10528;52.124;5.196;2023-07-02T03:45:29;16.10;99.90
20735;DHT22;10528;52.124;5.196;2023-07-02T03:47:56;16.00;99.90
20735;DHT22;10528;52.124;5.196;2023-07-02T03:50:23;16.00;99.90
20735;DHT22;10528;52.124;5.196;2023-07-02T03:52:50;16.00;99.90
20735;DHT22;10528;52.124;5.196;2023-07-02T03:55:17;15.90;99.90
20735;DHT22;10528;52.124;5.196;2023-07-02T03:57:46;15.90;99.90
20735;DHT22;10528;52.124;5.196;2023-07-02T04:00:13;15.90;99.90
20735;DHT22;10528;52.124;5.196;2023-07-02T04:02:40;16.00;99.90
20735;DHT22;10528;52.124;5.196;2023-07-02T04:05:08;16.00;99.90
20735;DHT22;10528;52.124;5.196;2023-07-02T04:07:35;16.00;99.90
20735;DHT22;10528;52.124;5.196;2023-07-02T04:10:03;16.00;99.90
20735;DHT22;10528;52.124;5.196;2023-07-02T04:12:31;16.00;99.90
20735;DHT22;10528;52.124;5.196;2023-07-02T04:14:57;16.10;99.90
20735;DHT22;10528;52.124;5.196;2023-07-02T04:17:24;16.10;99.90
20735;DHT22;10528;52.124;5.196;2023-07-02T04:19:54;16.10;99.90
20735;DHT22;10528;52.124;5.196;2023-07-02T04:22:21;16.20;99.90
20735;DHT22;10528;52.124;5.196;2023-07-02T04:24:48;16.30;99.90
20735;DHT22;10528;52.124;5.196;2023-07-02T04:27:18;16.30;99.90
20735;DHT22;10528;52.124;5.196;2023-07-02T04:30:05;16.40;99.90
20735;DHT22;10528;52.124;5.196;2023-07-02T04:32:34;16.50;99.90
20735;DHT22;10528;52.124;5.196;2023-07-02T04:35:02;16.40;99.90
20735;DHT22;10528;52.124;5.196;2023-07-02T04:37:29;16.40;99.90
20735;DHT22;10528;52.124;5.196;2023-07-02T04:39:56;16.50;99.90
20735;DHT22;10528;52.124;5.196;2023-07-02T04:42:23;16.50;99.90
20735;DHT22;10528;52.124;5.196;2023-07-02T04:44:58;17.00;99.90
20735;DHT22;10528;52.124;5.196;2023-07-02T04:47:30;16.80;99.90
20735;DHT22;10528;52.124;5.196;2023-07-02T04:49:57;16.80;99.90
20735;DHT22;10528;52.124;5.196;2023-07-02T04:52:24;16.90;99.90
20735;DHT22;10528;52.124;5.196;2023-07-02T04:54:51;16.80;99.90
20735;DHT22;10528;52.124;5.196;2023-07-02T04:57:18;17.20;99.90
20735;DHT22;10528;52.124;5.196;2023-07-02T04:59:45;17.90;99.90
20735;DHT22;10528;52.124;5.196;2023-07-02T05:02:12;18.90;99.90
20735;DHT22;10528;52.124;5.196;2023-07-02T05:04:39;19.30;99.90
20735;DHT22;10528;52.124;5.196;2023-07-02T05:07:06;19.50;99.90
20735;DHT22;10528;52.124;5.196;2023-07-02T05:09:33;20.30;99.90
20735;DHT22;10528;52.124;5.196;2023-07-02T05:12:00;20.20;99.90
20735;DHT22;10528;52.124;5.196;2023-07-02T05:14:27;20.80;99.90
20735;DHT22;10528;52.124;5.196;2023-07-02T05:16:54;20.70;99.90
20735;DHT22;10528;52.124;5.196;2023-07-02T05:19:21;20.70;99.90
20735;DHT22;10528;52.124;5.196;2023-07-02T05:21:48;21.10;99.90
20735;DHT22;10528;52.124;5.196;2023-07-02T05:24:15;21.10;99.90
20735;DHT22;10528;52.124;5.196;2023-07-02T05:26:42;20.70;99.90
20735;DHT22;10528;52.124;5.196;2023-07-02T05:29:10;20.90;99.90
20735;DHT22;10528;52.124;5.196;2023-07-02T05:31:37;20.80;99.90
20735;DHT22;10528;52.124;5.196;2023-07-02T05:34:04;20.70;99.90
20735;DHT22;10528;52.124;5.196;2023-07-02T05:36:31;21.00;99.90
20735;DHT22;10528;52.124;5.196;2023-07-02T05:38:58;21.20;99.90
20735;DHT22;10528;52.124;5.196;2023-07-02T05:41:25;21.30;99.90
20735;DHT22;10528;52.124;5.196;2023-07-02T05:43:57;21.50;99.90
20735;DHT22;10528;52.124;5.196;2023-07-02T05:46:24;21.60;99.90
20735;DHT22;10528;52.124;5.196;2023-07-02T05:48:52;21.80;99.90
20735;DHT22;10528;52.124;5.196;2023-07-02T05:51:23;21.60;99.90
20735;DHT22;10528;52.124;5.196;2023-07-02T05:53:51;21.50;99.90
20735;DHT22;10528;52.124;5.196;2023-07-02T05:56:18;21.90;99.90
20735;DHT22;10528;52.124;5.196;2023-07-02T05:58:46;22.50;99.90
20735;DHT22;10528;52.124;5.196;2023-07-02T06:01:14;22.70;99.90
20735;DHT22;10528;52.124;5.196;2023-07-02T06:03:42;22.60;99.90
20735;DHT22;10528;52.124;5.196;2023-07-02T06:06:10;22.70;99.90
20735;DHT22;10528;52.124;5.196;2023-07-02T06:08:38;23.20;99.90
20735;DHT22;10528;52.124;5.196;2023-07-02T06:11:05;23.30;99.90
20735;DHT22;10528;52.124;5.196;2023-07-02T06:13:32;23.50;99.90
20735;DHT22;10528;52.124;5.196;2023-07-02T06:15:59;22.60;99.90
20735;DHT22;10528;52.124;5.196;2023-07-02T06:18:26;22.60;99.90
20735;DHT22;10528;52.124;5.196;2023-07-02T06:20:53;22.10;99.90
20735;DHT22;10528;52.124;5.196;2023-07-02T06:23:21;22.00;99.90
20735;DHT22;10528;52.124;5.196;2023-07-02T06:25:48;22.10;99.90
20735;DHT22;10528;52.124;5.196;2023-07-02T06:28:14;21.90;99.90
20735;DHT22;10528;52.124;5.196;2023-07-02T06:30:41;22.40;99.90
20735;DHT22;10528;52.124;5.196;2023-07-02T06:33:08;22.70;99.90
20735;DHT22;10528;52.124;5.196;2023-07-02T06:35:35;22.80;99.90
20735;DHT22;10528;52.124;5.196;2023-07-02T06:38:02;22.70;99.90
20735;DHT22;10528;52.124;5.196;2023-07-02T06:40:29;23.00;99.90
20735;DHT22;10528;52.124;5.196;2023-07-02T06:42:56;23.50;99.90
20735;DHT22;10528;52.124;5.196;2023-07-02T06:45:23;23.80;99.90
20735;DHT22;10528;52.124;5.196;2023-07-02T06:47:50;24.00;99.90
20735;DHT22;10528;52.124;5.196;2023-07-02T06:50:17;24.50;99.90
20735;DHT22;10528;52.124;5.196;2023-07-02T06:52:44;24.20;99.90
20735;DHT22;10528;52.124;5.196;2023-07-02T06:55:10;24.10;99.90
20735;DHT22;10528;52.124;5.196;2023-07-02T06:57:44;24.40;99.90
20735;DHT22;10528;52.124;5.196;2023-07-02T07:00:15;24.90;99.90
20735;DHT22;10528;52.124;5.196;2023-07-02T07:02:42;25.40;99.90
20735;DHT22;10528;52.124;5.196;2023-07-02T07:05:09;25.20;99.90
20735;DHT22;10528;52.124;5.196;2023-07-02T07:07:36;25.50;99.90
20735;DHT22;10528;52.124;5.196;2023-07-02T07:10:04;25.30;99.90
20735;DHT22;10528;52.124;5.196;2023-07-02T07:12:31;25.20;99.90
20735;DHT22;10528;52.124;5.196;2023-07-02T07:14:58;24.00;99.90
20735;DHT22;10528;52.124;5.196;2023-07-02T07:17:25;23.60;99.90
20735;DHT22;10528;52.124;5.196;2023-07-02T07:19:52;23.20;99.90
20735;DHT22;10528;52.124;5.196;2023-07-02T07:22:19;24.70;99.90
20735;DHT22;10528;52.124;5.196;2023-07-02T07:24:46;25.10;99.90
20735;DHT22;10528;52.124;5.196;2023-07-02T07:27:13;25.30;99.90
20735;DHT22;10528;52.124;5.196;2023-07-02T07:29:40;25.20;99.90
20735;DHT22;10528;52.124;5.196;2023-07-02T07:32:07;24.90;99.90
20735;DHT22;10528;52.124;5.196;2023-07-02T07:34:34;25.50;99.90
20735;DHT22;10528;52.124;5.196;2023-07-02T07:37:02;25.30;99.90
20735;DHT22;10528;52.124;5.196;2023-07-02T07:39:29;25.20;99.90
20735;DHT22;10528;52.124;5.196;2023-07-02T07:41:56;25.10;99.90
20735;DHT22;10528;52.124;5.196;2023-07-02T07:44:23;24.70;99.90
20735;DHT22;10528;52.124;5.196;2023-07-02T07:46:50;25.00;99.90
20735;DHT22;10528;52.124;5.196;2023-07-02T07:49:16;24.60;99.90
20735;DHT22;10528;52.124;5.196;2023-07-02T07:51:44;23.80;99.90
20735;DHT22;10528;52.124;5.196;2023-07-02T07:54:10;24.20;99.90
20735;DHT22;10528;52.124;5.196;2023-07-02T07:56:38;24.70;99.90
20735;DHT22;10528;52.124;5.196;2023-07-02T07:59:05;25.20;99.90
20735;DHT22;10528;52.124;5.196;2023-07-02T08:01:32;26.00;99.90
20735;DHT22;10528;52.124;5.196;2023-07-02T08:03:59;25.80;99.90
20735;DHT22;10528;52.124;5.196;2023-07-02T08:06:26;25.80;99.90
20735;DHT22;10528;52.124;5.196;2023-07-02T08:08:53;25.00;99.90
20735;DHT22;10528;52.124;5.196;2023-07-02T08:11:20;25.00;99.90
20735;DHT22;10528;52.124;5.196;2023-07-02T08:13:47;26.10;99.90
20735;DHT22;10528;52.124;5.196;2023-07-02T08:16:14;26.10;99.90
20735;DHT22;10528;52.124;5.196;2023-07-02T08:18:41;24.80;99.90
20735;DHT22;10528;52.124;5.196;2023-07-02T08:21:08;24.10;99.90
20735;DHT22;10528;52.124;5.196;2023-07-02T08:23:35;23.40;99.90
20735;DHT22;10528;52.124;5.196;2023-07-02T08:26:02;23.40;99.90
20735;DHT22;10528;52.124;5.196;2023-07-02T08:28:29;23.60;99.90
20735;DHT22;10528;52.124;5.196;2023-07-02T08:30:57;24.60;99.90
20735;DHT22;10528;52.124;5.196;2023-07-02T08:33:24;25.00;99.90
20735;DHT22;10528;52.124;5.196;2023-07-02T08:35:51;24.70;99.90
20735;DHT22;10528;52.124;5.196;2023-07-02T08:38:18;24.70;99.90
20735;DHT22;10528;52.124;5.196;2023-07-02T08:40:45;25.20;99.90
20735;DHT22;10528;52.124;5.196;2023-07-02T08:43:12;24.90;99.90
20735;DHT22;10528;52.124;5.196;2023-07-02T08:45:41;24.50;99.90
20735;DHT22;10528;52.124;5.196;2023-07-02T08:48:10;24.40;99.90
20735;DHT22;10528;52.124;5.196;2023-07-02T08:50:37;24.60;99.90
20735;DHT22;10528;52.124;5.196;2023-07-02T08:53:04;24.70;99.90
20735;DHT22;10528;52.124;5.196;2023-07-02T08:55:31;23.80;99.90
20735;DHT22;10528;52.124;5.196;2023-07-02T08:57:58;23.60;99.90
20735;DHT22;10528;52.124;5.196;2023-07-02T09:00:26;23.30;99.90
20735;DHT22;10528;52.124;5.196;2023-07-02T09:02:53;23.40;99.90
20735;DHT22;10528;52.124;5.196;2023-07-02T09:05:20;23.60;99.90
20735;DHT22;10528;52.124;5.196;2023-07-02T09:07:48;24.00;99.90
20735;DHT22;10528;52.124;5.196;2023-07-02T09:10:28;24.20;99.90
20735;DHT22;10528;52.124;5.196;2023-07-02T09:13:07;24.20;99.90
20735;DHT22;10528;52.124;5.196;2023-07-02T09:15:40;23.70;99.90
20735;DHT22;10528;52.124;5.196;2023-07-02T09:18:18;23.80;99.90
20735;DHT22;10528;52.124;5.196;2023-07-02T09:20:46;23.50;99.90
20735;DHT22;10528;52.124;5.196;2023-07-02T09:23:13;23.70;99.90
20735;DHT22;10528;52.124;5.196;2023-07-02T09:25:40;23.70;99.90
20735;DHT22;10528;52.124;5.196;2023-07-02T09:28:19;23.60;99.90
20735;DHT22;10528;52.124;5.196;2023-07-02T09:30:55;23.40;99.90
20735;DHT22;10528;52.124;5.196;2023-07-02T09:33:24;23.20;99.90
20735;DHT22;10528;52.124;5.196;2023-07-02T09:35:52;23.00;99.90
20735;DHT22;10528;52.124;5.196;2023-07-02T09:38:20;23.10;99.90
20735;DHT22;10528;52.124;5.196;2023-07-02T09:40:50;23.50;99.90
20735;DHT22;10528;52.124;5.196;2023-07-02T09:43:19;23.50;99.90
20735;DHT22;10528;52.124;5.196;2023-07-02T09:45:47;23.70;99.90
20735;DHT22;10528;52.124;5.196;2023-07-02T09:48:17;23.40;99.90
20735;DHT22;10528;52.124;5.196;2023-07-02T09:50:49;23.40;99.90
20735;DHT22;10528;52.124;5.196;2023-07-02T09:53:17;23.90;99.90
20735;DHT22;10528;52.124;5.196;2023-07-02T09:55:44;23.70;99.90
20735;DHT22;10528;52.124;5.196;2023-07-02T09:58:11;23.40;99.90
20735;DHT22;10528;52.124;5.196;2023-07-02T10:00:41;23.70;99.90
20735;DHT22;10528;52.124;5.196;2023-07-02T10:03:08;23.70;99.90
20735;DHT22;10528;52.124;5.196;2023-07-02T10:05:35;23.60;99.90
20735;DHT22;10528;52.124;5.196;2023-07-02T10:08:14;23.40;99.90
20735;DHT22;10528;52.124;5.196;2023-07-02T10:10:43;23.50;99.90
20735;DHT22;10528;52.124;5.196;2023-07-02T10:13:10;23.50;99.90
20735;DHT22;10528;52.124;5.196;2023-07-02T10:15:38;23.70;99.90
20735;DHT22;10528;52.124;5.196;2023-07-02T10:18:06;23.70;99.90
20735;DHT22;10528;52.124;5.196;2023-07-02T10:20:38;23.90;99.90
20735;DHT22;10528;52.124;5.196;2023-07-02T10:23:08;24.20;99.90
20735;DHT22;10528;52.124;5.196;2023-07-02T10:25:37;24.20;99.90
20735;DHT22;10528;52.124;5.196;2023-07-02T10:30:44;23.90;99.90
20735;DHT22;10528;52.124;5.196;2023-07-02T10:33:15;24.10;99.90
20735;DHT22;10528;52.124;5.196;2023-07-02T10:35:45;23.50;99.90
20735;DHT22;10528;52.124;5.196;2023-07-02T10:38:25;23.50;99.90
20735;DHT22;10528;52.124;5.196;2023-07-02T10:40:57;23.60;99.90
20735;DHT22;10528;52.124;5.196;2023-07-02T10:43:27;23.80;99.90
20735;DHT22;10528;52.124;5.196;2023-07-02T10:46:00;24.00;99.90
20735;DHT22;10528;52.124;5.196;2023-07-02T10:48:28;23.80;99.90
20735;DHT22;10528;52.124;5.196;2023-07-02T10:50:56;23.40;99.90
20735;DHT22;10528;52.124;5.196;2023-07-02T10:53:23;23.00;99.90
20735;DHT22;10528;52.124;5.196;2023-07-02T10:55:54;23.00;99.90
20735;DHT22;10528;52.124;5.196;2023-07-02T10:58:24;23.00;99.90
20735;DHT22;10528;52.124;5.196;2023-07-02T11:00:52;23.50;99.90
20735;DHT22;10528;52.124;5.196;2023-07-02T11:03:24;23.60;99.90
20735;DHT22;10528;52.124;5.196;2023-07-02T11:05:53;23.90;99.90
20735;DHT22;10528;52.124;5.196;2023-07-02T11:08:21;23.80;99.90
20735;DHT22;10528;52.124;5.196;2023-07-02T11:10:48;24.20;99.90
20735;DHT22;10528;52.124;5.196;2023-07-02T11:13:17;24.10;99.90
20735;DHT22;10528;52.124;5.196;2023-07-02T11:15:46;24.10;99.90
20735;DHT22;10528;52.124;5.196;2023-07-02T11:18:18;23.90;99.90
20735;DHT22;10528;52.124;5.196;2023-07-02T11:20:48;24.30;99.90
20735;DHT22;10528;52.124;5.196;2023-07-02T11:23:23;24.30;99.90
20735;DHT22;10528;52.124;5.196;2023-07-02T11:25:59;24.20;99.90
20735;DHT22;10528;52.124;5.196;2023-07-02T11:28:28;23.90;99.90
20735;DHT22;10528;52.124;5.196;2023-07-02T11:30:58;24.00;99.90
20735;DHT22;10528;52.124;5.196;2023-07-02T11:33:39;23.90;99.90
20735;DHT22;10528;52.124;5.196;2023-07-02T11:36:07;23.70;99.90
20735;DHT22;10528;52.124;5.196;2023-07-02T11:38:46;23.70;99.90
20735;DHT22;10528;52.124;5.196;2023-07-02T11:41:14;23.60;99.90
20735;DHT22;10528;52.124;5.196;2023-07-02T11:43:41;23.50;99.90
20735;DHT22;10528;52.124;5.196;2023-07-02T11:46:08;23.70;99.90
20735;DHT22;10528;52.124;5.196;2023-07-02T11:48:35;23.60;99.90
20735;DHT22;10528;52.124;5.196;2023-07-02T11:51:02;23.70;99.90
20735;DHT22;10528;52.124;5.196;2023-07-02T11:53:29;23.90;99.90
20735;DHT22;10528;52.124;5.196;2023-07-02T11:55:56;23.70;99.90
20735;DHT22;10528;52.124;5.196;2023-07-02T11:58:22;24.20;99.90
20735;DHT22;10528;52.124;5.196;2023-07-02T12:00:49;24.00;99.90
20735;DHT22;10528;52.124;5.196;2023-07-02T12:03:16;23.90;99.90
20735;DHT22;10528;52.124;5.196;2023-07-02T12:05:43;23.60;99.90
20735;DHT22;10528;52.124;5.196;2023-07-02T12:08:10;23.70;99.90
20735;DHT22;10528;52.124;5.196;2023-07-02T12:10:37;23.60;99.90
20735;DHT22;10528;52.124;5.196;2023-07-02T12:13:05;23.80;99.90
20735;DHT22;10528;52.124;5.196;2023-07-02T12:15:31;23.50;99.90
20735;DHT22;10528;52.124;5.196;2023-07-02T12:17:58;23.30;99.90
20735;DHT22;10528;52.124;5.196;2023-07-02T12:20:25;23.20;99.90
20735;DHT22;10528;52.124;5.196;2023-07-02T12:22:52;23.90;99.90
20735;DHT22;10528;52.124;5.196;2023-07-02T12:25:20;23.90;99.90
20735;DHT22;10528;52.124;5.196;2023-07-02T12:27:46;23.60;99.90
20735;DHT22;10528;52.124;5.196;2023-07-02T12:30:13;23.90;99.90
20735;DHT22;10528;52.124;5.196;2023-07-02T12:32:44;24.00;99.90
20735;DHT22;10528;52.124;5.196;2023-07-02T12:35:11;23.70;99.90
20735;DHT22;10528;52.124;5.196;2023-07-02T12:37:45;23.90;99.90
20735;DHT22;10528;52.124;5.196;2023-07-02T12:40:14;23.70;99.90
20735;DHT22;10528;52.124;5.196;2023-07-02T12:42:42;23.60;99.90
20735;DHT22;10528;52.124;5.196;2023-07-02T12:45:10;23.60;99.90
20735;DHT22;10528;52.124;5.196;2023-07-02T12:47:39;23.90;99.90
20735;DHT22;10528;52.124;5.196;2023-07-02T12:50:08;23.90;99.90
20735;DHT22;10528;52.124;5.196;2023-07-02T12:52:37;24.10;99.90
20735;DHT22;10528;52.124;5.196;2023-07-02T12:55:04;24.20;99.90
20735;DHT22;10528;52.124;5.196;2023-07-02T12:57:31;24.00;99.90
20735;DHT22;10528;52.124;5.196;2023-07-02T12:59:58;23.90;99.90
20735;DHT22;10528;52.124;5.196;2023-07-02T13:02:25;23.80;99.90
20735;DHT22;10528;52.124;5.196;2023-07-02T13:04:52;23.50;99.90
20735;DHT22;10528;52.124;5.196;2023-07-02T13:07:19;23.40;99.90
20735;DHT22;10528;52.124;5.196;2023-07-02T13:09:47;23.60;99.90
20735;DHT22;10528;52.124;5.196;2023-07-02T13:12:13;23.90;99.90
20735;DHT22;10528;52.124;5.196;2023-07-02T13:14:41;23.70;99.90
20735;DHT22;10528;52.124;5.196;2023-07-02T13:17:07;23.30;99.90
20735;DHT22;10528;52.124;5.196;2023-07-02T13:19:34;23.60;99.90
20735;DHT22;10528;52.124;5.196;2023-07-02T13:22:02;23.80;99.90
20735;DHT22;10528;52.124;5.196;2023-07-02T13:24:33;23.90;99.90
20735;DHT22;10528;52.124;5.196;2023-07-02T13:27:08;23.80;99.90
20735;DHT22;10528;52.124;5.196;2023-07-02T13:29:39;23.80;99.90
20735;DHT22;10528;52.124;5.196;2023-07-02T13:32:07;23.50;99.90
20735;DHT22;10528;52.124;5.196;2023-07-02T13:34:34;23.50;99.90
20735;DHT22;10528;52.124;5.196;2023-07-02T13:37:01;23.70;99.90
20735;DHT22;10528;52.124;5.196;2023-07-02T13:39:30;23.60;99.90
20735;DHT22;10528;52.124;5.196;2023-07-02T13:41:57;23.70;99.90
20735;DHT22;10528;52.124;5.196;2023-07-02T13:44:24;23.70;99.90
20735;DHT22;10528;52.124;5.196;2023-07-02T13:46:51;23.90;99.90
20735;DHT22;10528;52.124;5.196;2023-07-02T13:49:19;23.80;99.90
20735;DHT22;10528;52.124;5.196;2023-07-02T13:51:48;23.80;99.90
20735;DHT22;10528;52.124;5.196;2023-07-02T13:54:17;23.70;99.90
20735;DHT22;10528;52.124;5.196;2023-07-02T13:56:46;23.60;99.90
20735;DHT22;10528;52.124;5.196;2023-07-02T13:59:17;23.30;99.90
20735;DHT22;10528;52.124;5.196;2023-07-02T14:01:45;23.50;99.90
20735;DHT22;10528;52.124;5.196;2023-07-02T14:04:14;23.50;99.90
20735;DHT22;10528;52.124;5.196;2023-07-02T14:06:44;23.30;99.90
20735;DHT22;10528;52.124;5.196;2023-07-02T14:09:11;23.40;99.90
20735;DHT22;10528;52.124;5.196;2023-07-02T14:11:40;23.30;99.90
20735;DHT22;10528;52.124;5.196;2023-07-02T14:14:08;23.10;99.90
20735;DHT22;10528;52.124;5.196;2023-07-02T14:16:35;23.50;99.90
20735;DHT22;10528;52.124;5.196;2023-07-02T14:19:03;23.30;99.90
20735;DHT22;10528;52.124;5.196;2023-07-02T14:21:30;23.20;99.90
20735;DHT22;10528;52.124;5.196;2023-07-02T14:23:58;23.30;99.90
20735;DHT22;10528;52.124;5.196;2023-07-02T14:26:25;23.20;99.90
20735;DHT22;10528;52.124;5.196;2023-07-02T14:28:53;23.20;99.90
20735;DHT22;10528;52.124;5.196;2023-07-02T14:31:20;23.20;99.90
20735;DHT22;10528;52.124;5.196;2023-07-02T14:33:47;23.40;99.90
20735;DHT22;10528;52.124;5.196;2023-07-02T14:36:14;23.10;99.90
20735;DHT22;10528;52.124;5.196;2023-07-02T14:38:41;23.10;99.90
20735;DHT22;10528;52.124;5.196;2023-07-02T14:41:09;23.00;99.90
20735;DHT22;10528;52.124;5.196;2023-07-02T14:43:36;23.20;99.90
20735;DHT22;10528;52.124;5.196;2023-07-02T14:46:04;23.20;99.90
20735;DHT22;10528;52.124;5.196;2023-07-02T14:48:31;23.40;99.90
20735;DHT22;10528;52.124;5.196;2023-07-02T14:51:00;23.00;99.90
20735;DHT22;10528;52.124;5.196;2023-07-02T14:53:31;23.10;99.90
20735;DHT22;10528;52.124;5.196;2023-07-02T14:56:00;23.20;99.90
20735;DHT22;10528;52.124;5.196;2023-07-02T14:58:29;23.30;99.90
20735;DHT22;10528;52.124;5.196;2023-07-02T15:00:58;23.10;99.90
20735;DHT22;10528;52.124;5.196;2023-07-02T15:03:27;23.10;99.90
20735;DHT22;10528;52.124;5.196;2023-07-02T15:06:04;23.10;99.90
20735;DHT22;10528;52.124;5.196;2023-07-02T15:08:43;23.20;99.90
20735;DHT22;10528;52.124;5.196;2023-07-02T15:11:12;23.50;99.90
20735;DHT22;10528;52.124;5.196;2023-07-02T15:13:40;23.20;99.90
20735;DHT22;10528;52.124;5.196;2023-07-02T15:16:09;23.10;99.90
20735;DHT22;10528;52.124;5.196;2023-07-02T15:18:38;23.10;99.90
20735;DHT22;10528;52.124;5.196;2023-07-02T15:21:05;23.10;99.90
20735;DHT22;10528;52.124;5.196;2023-07-02T15:23:33;22.80;99.90
20735;DHT22;10528;52.124;5.196;2023-07-02T15:26:02;22.90;99.90
20735;DHT22;10528;52.124;5.196;2023-07-02T15:28:31;22.70;99.90
20735;DHT22;10528;52.124;5.196;2023-07-02T15:31:02;22.90;99.90
20735;DHT22;10528;52.124;5.196;2023-07-02T15:33:31;22.60;99.90
20735;DHT22;10528;52.124;5.196;2023-07-02T15:36:00;22.60;99.90
20735;DHT22;10528;52.124;5.196;2023-07-02T15:38:28;22.70;99.90